メインページ
METAR-TAF:

METAR-TAF

空港 :

インディアナポリス, インディアナ州, アメリカ合衆国

インディアナポリス国際空港

緯度: 39-43-30N, 経度: 086-16-55W, 海抜: 243m

現時点の気象観測

当レポートは23分前の22:54(UTC)に作成
北/北西の風 7kt
気温 24°C
湿度 65%
気圧 1011 hPa
視程: 16.1km
高度3200ftの雲はほとんどない
高度25000ftの千切れ雲あり

METAR: KIND 272254Z 33007KT 10SM FEW032 BKN250 24/17 A2984 RMK AO2 SLP100 CB DSNT SE-SW MOV E T02440172

時間: 19:17 (23:17 UTC)

予報

当レポートは2時間50分前の20:27(UTC)に作成
予報は27日の 20時(UTC)から 28日の 24時(UTC)まで有効
北西の風 6kt
視程: 10km
高度3500ftの雲は散在している
28日の 0500時(UTC)から
東/南東の風 4kt
視程: 10km
高度12000ftの千切れ雲あり, 積乱雲.
近辺で激しい雷雨
28日の 0800時(UTC)から
南東の風 5kt
視程: 10km
高度3000ftの千切れ雲あり, 積乱雲.
にわか雨, 近辺で激しい雷雨
28日の 1100時(UTC)から
南/南東の風 5kt
視程: 9.7km
高度1500ftの千切れ雲あり, 積乱雲.
靄, 近辺で激しい雷雨

TAF: KIND 272027Z 2720/2824 31006KT P6SM SCT035 FM280500 11004KT P6SM VCTS BKN120CB FM280800 14005KT P6SM SHRA VCTS BKN030CB FM281100 16005KT 6SM BR VCTS BKN015CB

4,000以上の空港の気象観測と天気予報(METAR報とTAF報)

利用可能な観測所は地図上に黄色い丸と赤い丸で示す。

丸の上にカーソルを重ねると観測所名を参照できる。

次にクリックすると気象観測と天気予報を参照できる。

マップの切り替え:黒色「×」印の緑ボタンをクリックして拡大、「-」印の緑ボタンをクリックして縮小、緑色の三角印をクリックして隣りの地図に切り替え


METAR-TAF: